Time;durP1;ratioP1;P1;durP2;ratioP2;P2;SDS_P1;SDS_P2;PMS_P1;PMS_P2;Temp;Humidity;BMP_temperature;BMP_pressure;BME280_temperature;BME280_humidity;BME280_pressure;Samples;Min_cycle;Max_cycle;Signal;HPM_P1;HPM_P2
2022/09/26 00:01:54;;;;;;;46.80;29.92;;;13.90;99.90;;;;;;5047473;28;20044;-78
2022/09/26 00:04:24;;;;;;;46.90;30.25;;;13.90;99.90;;;;;;5030746;28;20034;-80
2022/09/26 00:06:56;;;;;;;53.80;32.50;;;13.90;99.90;;;;;;5037934;28;20109;-79
2022/09/26 00:09:24;;;;;;;47.28;30.98;;;13.90;99.90;;;;;;5036852;28;20440;-79
2022/09/26 00:11:49;;;;;;;44.65;28.33;;;13.90;99.90;;;;;;5037625;28;20068;-80
2022/09/26 00:14:21;;;;;;;43.85;27.48;;;13.90;99.90;;;;;;5047450;28;20401;-80
2022/09/26 00:16:48;;;;;;;41.03;27.65;;;13.90;99.90;;;;;;5044855;28;20018;-78
2022/09/26 00:19:15;;;;;;;40.60;26.33;;;14.00;99.90;;;;;;5045888;28;20022;-78
2022/09/26 00:21:41;;;;;;;38.28;24.67;;;14.00;99.90;;;;;;5042553;28;20389;-79
2022/09/26 00:24:08;;;;;;;34.72;24.40;;;13.90;99.90;;;;;;5042717;28;20032;-79
2022/09/26 00:26:35;;;;;;;37.60;24.38;;;14.00;99.90;;;;;;5044233;28;20029;-79
2022/09/26 00:29:05;;;;;;;36.85;24.75;;;14.00;99.90;;;;;;5047247;28;20488;-78
2022/09/26 00:31:34;;;;;;;36.08;24.02;;;14.00;99.90;;;;;;5048827;28;20030;-78
2022/09/26 00:34:01;;;;;;;36.70;25.55;;;14.00;99.90;;;;;;5031029;28;20109;-78
2022/09/26 00:36:29;;;;;;;36.13;24.55;;;14.00;99.90;;;;;;5046849;28;20026;-77
2022/09/26 00:38:54;;;;;;;37.65;25.48;;;13.90;99.90;;;;;;5026453;28;20033;-80
2022/09/26 00:41:21;;;;;;;40.08;27.10;;;13.90;99.90;;;;;;5022835;28;20440;-79
2022/09/26 00:43:48;;;;;;;35.45;24.75;;;13.90;99.90;;;;;;5041127;28;20029;-79
2022/09/26 00:46:14;;;;;;;37.00;25.33;;;13.90;99.90;;;;;;5022304;28;20068;-81
2022/09/26 00:48:42;;;;;;;40.10;25.88;;;13.90;99.90;;;;;;5025631;28;20018;-79
2022/09/26 00:51:09;;;;;;;38.25;25.98;;;13.90;99.90;;;;;;5048774;28;20030;-79
2022/09/26 00:53:41;;;;;;;38.58;25.73;;;13.90;99.90;;;;;;5048491;28;20025;-79
2022/09/26 00:56:11;;;;;;;42.78;27.00;;;13.90;99.90;;;;;;5028005;28;20473;-78
2022/09/26 00:58:38;;;;;;;41.30;26.83;;;14.00;99.90;;;;;;5026134;28;20033;-78
2022/09/26 01:01:05;;;;;;;42.35;27.05;;;13.90;99.90;;;;;;5089933;22;20064;-86
2022/09/26 01:03:33;;;;;;;43.10;28.67;;;13.90;99.90;;;;;;5038792;28;20029;-83
2022/09/26 01:06:00;;;;;;;40.80;27.67;;;13.90;99.90;;;;;;5074016;28;20025;-86
2022/09/26 01:08:31;;;;;;;44.28;28.23;;;13.90;99.90;;;;;;5071168;28;20020;-84
2022/09/26 01:10:58;;;;;;;44.53;29.67;;;13.90;99.90;;;;;;5055738;28;20025;-86
2022/09/26 01:13:26;;;;;;;44.47;28.25;;;14.00;99.90;;;;;;5055242;28;20013;-84
2022/09/26 01:15:52;;;;;;;40.10;28.48;;;14.00;99.90;;;;;;5058005;28;20033;-84
2022/09/26 01:18:19;;;;;;;41.13;28.35;;;14.00;99.90;;;;;;5072672;28;20047;-85
2022/09/26 01:21:02;;;;;;;46.90;29.65;;;14.00;99.90;;;;;;5070398;28;20408;-83
2022/09/26 01:24:03;;;;;;;43.58;29.40;;;14.00;99.90;;;;;;5070046;28;20021;-85
2022/09/26 01:26:50;;;;;;;45.40;30.55;;;14.00;99.90;;;;;;5057697;28;20036;-84
2022/09/26 01:29:41;;;;;;;45.28;29.17;;;14.00;99.90;;;;;;5077433;28;20024;-82
2022/09/26 01:32:48;;;;;;;42.58;29.30;;;14.00;99.90;;;;;;5059872;28;20045;-86
2022/09/26 01:35:36;;;;;;;42.40;29.10;;;14.00;99.90;;;;;;5075806;28;20040;-83
2022/09/26 01:38:20;;;;;;;48.35;30.27;;;14.10;99.90;;;;;;5074639;28;20029;-86
2022/09/26 01:41:23;;;;;;;41.80;28.67;;;14.10;99.90;;;;;;5055636;28;20024;-86
2022/09/26 01:44:23;;;;;;;41.80;28.95;;;14.00;99.90;;;;;;5048285;28;20053;-85
2022/09/26 01:46:57;;;;;;;45.40;28.35;;;14.10;99.90;;;;;;5070089;28;20084;-86
2022/09/26 01:49:57;;;;;;;41.30;29.17;;;14.00;99.90;;;;;;5046047;28;20044;-87
2022/09/26 01:52:26;;;;;;;45.25;28.33;;;14.10;99.90;;;;;;5070843;28;20037;-85
2022/09/26 01:55:22;;;;;;;39.92;27.83;;;14.10;99.90;;;;;;5048607;28;20021;-85
2022/09/26 01:58:04;;;;;;;40.60;28.35;;;14.00;99.90;;;;;;5047143;28;20029;-85
2022/09/26 02:00:31;;;;;;;40.53;28.58;;;14.10;99.90;;;;;;5047337;28;20037;-85
2022/09/26 02:02:59;;;;;;;42.80;28.17;;;14.10;99.90;;;;;;5065577;28;20024;-85
2022/09/26 02:05:37;;;;;;;39.42;26.65;;;14.10;99.90;;;;;;5052500;28;20029;-83
2022/09/26 02:08:18;;;;;;;38.83;27.48;;;14.00;99.90;;;;;;5035994;28;20037;-83
2022/09/26 02:11:17;;;;;;;42.03;28.42;;;14.10;99.90;;;;;;5070313;28;20029;-85
2022/09/26 02:13:54;;;;;;;40.75;28.13;;;14.10;99.90;;;;;;5053584;28;20025;-84
2022/09/26 02:16:26;;;;;;;37.78;26.45;;;14.00;99.90;;;;;;5053285;28;20059;-83
2022/09/26 02:19:09;;;;;;;37.63;26.67;;;14.00;99.90;;;;;;5070694;28;20033;-84
2022/09/26 02:21:35;;;;;;;32.30;22.77;;;14.10;99.90;;;;;;5073207;28;20091;-85
2022/09/26 02:24:01;;;;;;;37.38;24.80;;;14.10;99.90;;;;;;5054974;28;20033;-84
2022/09/26 02:26:28;;;;;;;33.17;22.73;;;14.10;99.90;;;;;;5055239;28;20037;-86
2022/09/26 02:28:55;;;;;;;33.13;23.45;;;14.00;99.90;;;;;;5073071;28;20029;-83
2022/09/26 02:31:24;;;;;;;30.67;22.42;;;14.00;99.90;;;;;;5056819;28;20029;-82
2022/09/26 02:33:52;;;;;;;33.28;23.17;;;14.00;99.90;;;;;;5056322;28;20032;-85
2022/09/26 02:36:19;;;;;;;39.20;26.40;;;13.90;99.90;;;;;;5055574;28;20029;-83
2022/09/26 02:38:46;;;;;;;41.25;28.48;;;13.90;99.90;;;;;;5056333;28;20040;-86
2022/09/26 02:42:06;;;;;;;40.80;27.53;;;13.90;99.90;;;;;;5071370;28;20036;-83
2022/09/26 02:45:05;;;;;;;37.28;26.77;;;13.80;99.90;;;;;;5070494;28;20040;-84
2022/09/26 02:47:34;;;;;;;35.95;24.13;;;13.80;99.90;;;;;;5050417;28;20092;-86
2022/09/26 02:50:19;;;;;;;29.58;22.33;;;13.80;99.90;;;;;;5048557;28;20112;-85
2022/09/26 02:53:13;;;;;;;30.13;21.02;;;13.80;99.90;;;;;;5047454;28;20060;-85
2022/09/26 02:56:02;;;;;;;24.83;18.40;;;13.80;99.90;;;;;;5045884;28;20033;-85
2022/09/26 02:58:37;;;;;;;22.58;16.30;;;13.90;99.90;;;;;;5046442;28;20036;-84
2022/09/26 03:01:30;;;;;;;24.08;17.00;;;13.80;99.90;;;;;;5046823;28;20033;-86
2022/09/26 03:04:17;;;;;;;26.05;17.65;;;13.80;99.90;;;;;;5046348;28;20433;-86
2022/09/26 03:06:49;;;;;;;29.88;17.80;;;13.90;99.90;;;;;;5046917;28;20029;-84
2022/09/26 03:09:17;;;;;;;22.40;16.67;;;13.80;99.90;;;;;;5049518;28;20061;-86
2022/09/26 03:11:44;;;;;;;26.40;18.05;;;13.80;99.90;;;;;;5053470;28;20025;-86
2022/09/26 03:14:12;;;;;;;26.67;17.90;;;13.80;99.90;;;;;;5053397;28;20211;-83
2022/09/26 03:16:43;;;;;;;24.40;17.30;;;13.80;99.90;;;;;;5053087;28;20116;-83
2022/09/26 03:19:10;;;;;;;20.40;15.15;;;13.80;99.90;;;;;;5071845;28;20171;-85
2022/09/26 03:21:36;;;;;;;21.63;16.02;;;13.80;99.90;;;;;;5074160;28;20055;-85
2022/09/26 03:24:03;;;;;;;21.02;15.07;;;13.80;99.90;;;;;;5061349;28;20041;-82
2022/09/26 03:26:30;;;;;;;20.60;14.70;;;13.80;99.90;;;;;;5060951;28;20040;-85
2022/09/26 03:28:59;;;;;;;16.50;12.82;;;13.80;99.90;;;;;;5060143;28;20024;-84
2022/09/26 03:31:28;;;;;;;16.77;12.10;;;13.80;99.90;;;;;;5060004;28;20073;-85
2022/09/26 03:34:03;;;;;;;16.52;10.32;;;13.80;99.90;;;;;;5060220;28;20033;-82
2022/09/26 03:36:30;;;;;;;14.02;10.48;;;13.90;99.90;;;;;;5056525;28;20049;-85
2022/09/26 03:38:57;;;;;;;11.90;9.02;;;13.90;99.90;;;;;;5056805;28;20032;-85
2022/09/26 03:41:41;;;;;;;10.27;8.00;;;13.90;99.90;;;;;;5077300;28;20039;-81
2022/09/26 03:44:36;;;;;;;11.60;8.45;;;13.90;99.90;;;;;;5071150;28;20021;-80
2022/09/26 03:47:03;;;;;;;10.45;7.68;;;13.90;99.90;;;;;;5080835;28;20055;-82
2022/09/26 03:49:28;;;;;;;10.23;7.60;;;13.80;99.90;;;;;;5062830;28;20025;-84
2022/09/26 03:51:54;;;;;;;9.95;7.22;;;13.80;99.90;;;;;;5076180;28;20033;-83
2022/09/26 03:54:20;;;;;;;10.85;7.88;;;13.90;99.90;;;;;;5039985;28;20048;-84
2022/09/26 03:56:47;;;;;;;9.35;7.80;;;13.90;99.90;;;;;;5057887;28;20029;-84
2022/09/26 03:59:13;;;;;;;10.45;7.25;;;13.90;99.90;;;;;;5061809;28;20071;-84
2022/09/26 04:01:40;;;;;;;10.48;6.53;;;13.90;99.90;;;;;;5060408;28;20017;-84
2022/09/26 04:04:06;;;;;;;9.88;7.75;;;13.90;99.90;;;;;;5046295;28;20037;-83
2022/09/26 04:06:32;;;;;;;10.00;6.50;;;13.90;99.90;;;;;;5063268;28;20039;-84
2022/09/26 04:09:00;;;;;;;8.88;6.25;;;13.90;99.90;;;;;;5062853;28;20025;-84
2022/09/26 04:11:27;;;;;;;8.88;6.28;;;14.00;99.90;;;;;;5062620;28;20029;-85
2022/09/26 04:13:54;;;;;;;10.52;6.07;;;13.90;99.90;;;;;;5061251;28;20037;-84
2022/09/26 04:16:25;;;;;;;7.30;5.63;;;14.00;99.90;;;;;;5060377;28;20009;-84
2022/09/26 04:18:58;;;;;;;8.05;5.18;;;14.00;99.90;;;;;;5061527;28;20017;-85
2022/09/26 04:21:28;;;;;;;8.38;5.57;;;13.90;99.90;;;;;;5060878;28;20037;-84
2022/09/26 04:23:54;;;;;;;8.02;6.13;;;13.90;99.90;;;;;;5055270;28;20029;-87
2022/09/26 04:26:24;;;;;;;6.55;5.28;;;13.90;99.90;;;;;;5038033;28;20025;-85
2022/09/26 04:28:54;;;;;;;8.13;5.07;;;13.90;99.90;;;;;;5051669;28;20028;-84
2022/09/26 04:31:21;;;;;;;8.93;6.47;;;13.90;99.90;;;;;;5051491;28;20025;-86
2022/09/26 04:33:54;;;;;;;8.10;4.93;;;13.90;99.90;;;;;;5034840;28;20052;-87
2022/09/26 04:36:22;;;;;;;6.47;5.70;;;13.90;99.90;;;;;;5049258;28;20089;-87
2022/09/26 04:38:48;;;;;;;6.53;5.10;;;13.90;99.90;;;;;;5067236;28;20095;-87
2022/09/26 04:41:17;;;;;;;6.05;5.20;;;13.90;99.90;;;;;;5051349;28;20039;-86
2022/09/26 04:43:46;;;;;;;7.40;5.40;;;13.90;99.90;;;;;;5074103;28;20029;-84
2022/09/26 04:46:20;;;;;;;7.93;5.80;;;13.90;99.90;;;;;;5057445;28;20057;-84
2022/09/26 04:48:50;;;;;;;8.80;5.78;;;13.90;99.90;;;;;;5056046;28;20576;-85
2022/09/26 04:51:20;;;;;;;7.63;5.78;;;13.90;99.90;;;;;;5056074;28;20037;-83
2022/09/26 04:53:49;;;;;;;6.82;5.10;;;13.90;99.90;;;;;;5060806;28;20013;-83
2022/09/26 04:56:21;;;;;;;7.65;6.07;;;13.90;99.90;;;;;;5060967;28;20087;-83
2022/09/26 04:58:47;;;;;;;9.77;6.25;;;13.80;99.90;;;;;;5077256;28;20013;-84
2022/09/26 05:01:20;;;;;;;10.35;5.85;;;13.90;99.90;;;;;;5058360;28;20096;-84
2022/09/26 05:04:02;;;;;;;8.35;5.80;;;13.90;99.90;;;;;;5078158;28;20032;-82
2022/09/26 05:06:30;;;;;;;12.82;6.47;;;13.90;99.90;;;;;;5059617;28;20083;-84
2022/09/26 05:08:58;;;;;;;14.82;6.65;;;13.90;99.90;;;;;;5060024;28;20095;-85
2022/09/26 05:11:46;;;;;;;9.75;6.25;;;13.90;99.90;;;;;;5060736;28;20096;-82
2022/09/26 05:14:13;;;;;;;8.00;6.05;;;13.90;99.90;;;;;;5058888;28;20143;-86
2022/09/26 05:16:39;;;;;;;9.82;6.40;;;13.90;99.90;;;;;;5059789;28;20028;-84
2022/09/26 05:19:07;;;;;;;11.63;6.72;;;13.90;99.90;;;;;;5059845;28;20017;-84
2022/09/26 05:21:37;;;;;;;10.80;7.28;;;14.00;99.90;;;;;;5060597;28;20013;-83
2022/09/26 05:26:51;;;;;;;12.40;7.47;;;14.10;99.90;;;;;;5061055;28;20163;-83
2022/09/26 05:29:19;;;;;;;11.15;7.15;;;14.10;99.90;;;;;;5059843;28;20275;-82
2022/09/26 05:31:57;;;;;;;16.55;7.60;;;14.10;99.90;;;;;;5060945;28;20047;-81
2022/09/26 05:34:25;;;;;;;17.00;8.23;;;14.10;99.90;;;;;;5044441;28;20032;-83
2022/09/26 05:36:52;;;;;;;12.60;8.40;;;14.10;99.90;;;;;;5060916;28;20025;-84
2022/09/26 05:42:07;;;;;;;11.32;8.00;;;14.10;99.90;;;;;;5061282;28;20040;-83
2022/09/26 05:44:34;;;;;;;12.38;8.45;;;14.10;99.90;;;;;;5060496;28;20044;-82
2022/09/26 05:47:07;;;;;;;12.23;8.65;;;14.00;99.90;;;;;;5078130;28;20017;-83
2022/09/26 05:49:34;;;;;;;14.48;8.98;;;14.00;99.90;;;;;;5056536;28;20037;-85
2022/09/26 05:52:01;;;;;;;16.25;10.63;;;14.10;99.90;;;;;;5055537;28;20045;-83
2022/09/26 05:54:27;;;;;;;26.23;14.63;;;14.10;99.90;;;;;;5075431;28;20089;-84
2022/09/26 05:56:54;;;;;;;17.25;11.25;;;14.20;99.90;;;;;;5061126;28;20064;-85
2022/09/26 05:59:23;;;;;;;19.00;12.07;;;14.20;99.90;;;;;;5074636;28;20025;-86
2022/09/26 06:02:15;;;;;;;18.13;11.60;;;14.30;99.90;;;;;;5047686;28;20038;-86
2022/09/26 06:04:56;;;;;;;20.73;12.75;;;14.30;99.90;;;;;;5057571;28;20016;-87
2022/09/26 06:07:48;;;;;;;18.38;11.75;;;14.30;99.90;;;;;;5035199;28;20033;-86
2022/09/26 06:10:31;;;;;;;20.67;13.15;;;14.40;99.90;;;;;;5040750;28;20021;-84
2022/09/26 06:13:02;;;;;;;21.10;13.35;;;14.50;99.90;;;;;;5054660;28;20043;-86
2022/09/26 06:15:30;;;;;;;23.77;13.75;;;14.50;99.90;;;;;;5050962;28;20025;-84
2022/09/26 06:18:03;;;;;;;21.20;14.35;;;14.50;99.90;;;;;;5051518;28;20028;-82
2022/09/26 06:20:32;;;;;;;25.58;14.98;;;14.50;99.90;;;;;;5063165;28;20016;-87
2022/09/26 06:22:59;;;;;;;21.88;13.70;;;14.60;99.90;;;;;;5036422;28;20055;-86
2022/09/26 06:25:25;;;;;;;21.85;14.18;;;14.70;99.90;;;;;;5050975;28;20032;-88
2022/09/26 06:27:56;;;;;;;20.98;13.88;;;14.70;99.90;;;;;;5060780;28;20009;-86
2022/09/26 06:30:24;;;;;;;22.60;13.88;;;14.80;99.90;;;;;;5063821;28;20103;-85
2022/09/26 06:32:53;;;;;;;25.98;13.82;;;14.80;99.90;;;;;;5048413;28;20060;-88
2022/09/26 06:35:35;;;;;;;26.98;14.65;;;14.80;99.90;;;;;;5058082;28;20021;-88
2022/09/26 06:38:17;;;;;;;22.10;14.73;;;14.90;99.90;;;;;;5050991;28;20476;-88
2022/09/26 06:40:43;;;;;;;20.88;13.85;;;14.90;99.90;;;;;;5052858;28;20096;-87
2022/09/26 06:43:09;;;;;;;20.38;13.85;;;14.90;99.90;;;;;;5052868;28;20001;-85
2022/09/26 06:46:01;;;;;;;20.70;13.48;;;15.00;99.90;;;;;;5033285;28;20025;-88
2022/09/26 06:48:35;;;;;;;16.33;11.50;;;15.10;99.90;;;;;;5054062;28;20017;-85
2022/09/26 06:51:14;;;;;;;23.73;14.27;;;15.20;99.90;;;;;;5055473;28;20056;-83
2022/09/26 06:53:41;;;;;;;23.63;13.93;;;15.20;99.90;;;;;;5055786;28;20036;-81
2022/09/26 06:56:07;;;;;;;19.30;13.18;;;15.20;99.90;;;;;;5055617;28;20040;-85
2022/09/26 06:58:33;;;;;;;21.75;13.98;;;15.30;99.90;;;;;;5070379;28;20025;-87
2022/09/26 07:01:02;;;;;;;21.08;12.98;;;15.30;99.90;;;;;;5069772;22;20108;-81
2022/09/26 07:03:40;;;;;;;23.80;13.32;;;15.40;99.90;;;;;;5062714;28;20154;-80
2022/09/26 07:06:25;;;;;;;21.37;13.20;;;15.60;99.90;;;;;;5054680;28;20036;-81
2022/09/26 07:08:52;;;;;;;22.13;13.82;;;15.80;99.90;;;;;;5042367;28;20029;-80
2022/09/26 07:11:26;;;;;;;21.75;13.60;;;15.90;99.90;;;;;;5043974;28;20029;-79
2022/09/26 07:13:52;;;;;;;21.10;13.95;;;15.90;99.90;;;;;;5025914;28;20029;-80
2022/09/26 07:16:18;;;;;;;19.17;12.88;;;16.10;99.90;;;;;;5029287;28;20124;-78
2022/09/26 07:19:07;;;;;;;20.17;13.13;;;16.30;99.90;;;;;;5054270;28;20044;-80
2022/09/26 07:21:56;;;;;;;20.60;13.90;;;16.50;99.90;;;;;;5057037;28;20059;-80
2022/09/26 07:24:30;;;;;;;19.08;13.40;;;16.50;99.90;;;;;;5047266;28;20097;-77
2022/09/26 07:26:56;;;;;;;17.70;13.38;;;16.50;99.90;;;;;;5044941;28;20497;-79
2022/09/26 07:29:22;;;;;;;16.90;12.35;;;16.60;99.90;;;;;;5053370;28;20029;-79
2022/09/26 07:31:48;;;;;;;20.17;13.55;;;16.60;99.90;;;;;;5036958;28;20085;-80
2022/09/26 07:34:25;;;;;;;20.35;12.95;;;16.80;99.90;;;;;;5042916;28;20052;-79
2022/09/26 07:36:52;;;;;;;17.88;12.00;;;17.00;99.90;;;;;;5050399;28;20040;-78
2022/09/26 07:39:18;;;;;;;17.80;12.52;;;17.20;99.90;;;;;;5062032;28;20075;-76
2022/09/26 07:41:45;;;;;;;16.10;11.48;;;17.40;99.90;;;;;;5060833;28;20048;-79
2022/09/26 07:44:11;;;;;;;19.48;11.73;;;17.70;99.90;;;;;;5040821;28;20032;-78
2022/09/26 07:52:34;;;;;;;17.98;12.15;;;18.00;99.90;;;;;;5037179;28;20033;-79
2022/09/26 07:55:27;;;;;;;18.80;13.73;;;18.00;99.90;;;;;;5028905;28;20033;-78
2022/09/26 07:58:16;;;;;;;17.17;10.63;;;18.00;99.90;;;;;;5052032;28;20044;-78
2022/09/26 08:01:10;;;;;;;17.45;11.63;;;17.70;99.90;;;;;;5028462;28;20409;-80
2022/09/26 08:04:10;;;;;;;18.25;10.43;;;17.50;99.90;;;;;;5054255;28;20116;-80
2022/09/26 08:06:40;;;;;;;17.65;11.27;;;17.40;99.90;;;;;;5040438;28;20552;-79
2022/09/26 08:09:06;;;;;;;20.40;10.93;;;17.20;99.90;;;;;;5058113;28;20032;-79
2022/09/26 08:12:04;;;;;;;19.08;11.07;;;17.10;99.90;;;;;;5006389;28;20072;-78
2022/09/26 08:15:07;;;;;;;16.70;11.20;;;17.00;99.90;;;;;;5038054;28;20029;-80
2022/09/26 08:17:40;;;;;;;14.23;9.73;;;17.00;99.90;;;;;;5038484;28;20044;-78
2022/09/26 08:20:07;;;;;;;16.15;10.15;;;17.20;99.90;;;;;;5037833;28;20496;-78
2022/09/26 08:22:33;;;;;;;16.95;11.20;;;17.30;99.90;;;;;;5020219;28;20489;-79
2022/09/26 08:24:59;;;;;;;13.15;9.13;;;17.40;99.90;;;;;;5050336;28;20025;-79
2022/09/26 08:27:42;;;;;;;15.18;9.20;;;17.60;99.90;;;;;;5039232;28;20021;-79
2022/09/26 08:30:09;;;;;;;15.13;8.73;;;17.90;99.90;;;;;;5038758;28;20028;-80
2022/09/26 08:32:36;;;;;;;13.23;8.65;;;18.20;99.90;;;;;;5036601;28;20516;-78
2022/09/26 08:35:02;;;;;;;15.10;8.18;;;18.40;99.90;;;;;;5038121;28;20485;-80
2022/09/26 08:37:43;;;;;;;11.75;8.60;;;18.50;99.90;;;;;;5064990;28;20017;-78
2022/09/26 08:41:01;;;;;;;12.95;8.85;;;18.50;99.90;;;;;;5063804;28;20033;-78
2022/09/26 08:43:45;;;;;;;13.57;8.48;;;18.60;99.90;;;;;;5077771;28;20059;-78
2022/09/26 08:47:00;;;;;;;14.63;8.52;;;18.60;99.90;;;;;;5076501;28;20052;-78
2022/09/26 08:49:58;;;;;;;11.25;8.43;;;18.70;99.90;;;;;;5037994;28;20032;-78
2022/09/26 08:52:36;;;;;;;12.00;8.88;;;18.70;99.90;;;;;;5057885;28;20041;-78
2022/09/26 08:55:26;;;;;;;14.98;9.10;;;18.70;99.90;;;;;;5049526;28;20120;-79
2022/09/26 08:58:11;;;;;;;15.45;8.55;;;18.80;99.90;;;;;;5037735;28;20457;-78
2022/09/26 09:00:37;;;;;;;15.30;8.43;;;18.90;99.90;;;;;;5037300;28;20223;-79
2022/09/26 09:03:20;;;;;;;13.68;9.00;;;18.90;99.90;;;;;;5043024;28;20397;-79
2022/09/26 09:06:00;;;;;;;12.82;8.95;;;19.10;99.90;;;;;;5044441;28;20033;-78
2022/09/26 09:08:39;;;;;;;11.65;8.45;;;19.10;99.90;;;;;;5068259;28;20029;-78
2022/09/26 09:12:01;;;;;;;10.98;7.90;;;19.30;99.90;;;;;;5036380;28;20040;-78
2022/09/26 09:14:57;;;;;;;13.32;8.20;;;20.30;99.90;;;;;;5059253;28;20452;-80
2022/09/26 09:18:07;;;;;;;11.65;7.78;;;20.80;99.90;;;;;;5054474;28;20032;-79
2022/09/26 09:21:20;;;;;;;11.57;7.70;;;21.10;99.90;;;;;;5021200;28;20051;-79
2022/09/26 09:24:28;;;;;;;12.43;7.40;;;22.60;99.90;;;;;;5073290;28;21121;-83
2022/09/26 09:27:27;;;;;;;9.40;6.93;;;23.70;99.90;;;;;;5043494;28;20059;-81
2022/09/26 09:29:57;;;;;;;9.55;6.97;;;23.70;99.90;;;;;;5033023;28;20033;-79
2022/09/26 09:32:52;;;;;;;8.82;6.30;;;24.10;99.90;;;;;;5042701;28;20148;-80
2022/09/26 09:35:50;;;;;;;7.22;5.22;;;24.90;98.50;;;;;;5052893;28;20009;-81
2022/09/26 09:38:46;;;;;;;9.15;5.30;;;25.80;97.10;;;;;;5053859;28;20040;-82
2022/09/26 09:41:47;;;;;;;7.32;4.57;;;27.80;94.70;;;;;;5029808;28;20489;-81
2022/09/26 09:44:41;;;;;;;5.72;4.43;;;29.70;91.50;;;;;;5048332;28;20032;-81
2022/09/26 09:47:17;;;;;;;12.30;4.55;;;31.60;84.90;;;;;;5050385;28;20035;-80
2022/09/26 09:49:46;;;;;;;6.47;4.22;;;32.20;80.60;;;;;;5072804;28;20032;-78
2022/09/26 09:52:34;;;;;;;7.32;5.05;;;32.60;76.80;;;;;;5064076;28;20029;-80
2022/09/26 09:55:19;;;;;;;4.63;4.00;;;32.80;74.10;;;;;;5037259;28;20027;-79
2022/09/26 09:58:10;;;;;;;7.38;4.22;;;32.60;72.90;;;;;;5045191;28;20021;-78
2022/09/26 10:00:48;;;;;;;5.72;3.78;;;32.10;72.30;;;;;;5043163;28;20036;-81
2022/09/26 10:03:54;;;;;;;5.30;3.60;;;31.50;72.20;;;;;;5039394;28;20052;-79
2022/09/26 10:06:21;;;;;;;4.60;3.15;;;32.20;71.30;;;;;;5030417;28;20036;-80
2022/09/26 10:08:49;;;;;;;4.25;3.00;;;32.50;69.50;;;;;;5055741;28;20033;-79
2022/09/26 10:11:40;;;;;;;3.65;2.80;;;32.40;68.50;;;;;;5053468;28;20039;-79
2022/09/26 10:14:41;;;;;;;3.72;2.53;;;32.10;67.90;;;;;;5054192;28;20032;-82
2022/09/26 10:17:09;;;;;;;5.00;2.83;;;31.50;68.80;;;;;;5056150;28;20069;-83
2022/09/26 10:19:43;;;;;;;4.07;2.80;;;31.20;68.90;;;;;;5035677;28;20083;-81
2022/09/26 10:22:23;;;;;;;5.72;2.90;;;30.00;69.40;;;;;;5039331;28;20031;-81
2022/09/26 10:24:59;;;;;;;4.55;2.80;;;28.00;71.70;;;;;;5040911;28;20044;-81
2022/09/26 10:27:46;;;;;;;3.80;2.50;;;28.20;73.60;;;;;;5034200;28;20048;-83
2022/09/26 10:30:19;;;;;;;3.40;2.50;;;30.90;69.30;;;;;;5020692;28;20025;-81
2022/09/26 10:32:57;;;;;;;3.38;2.20;;;31.70;68.40;;;;;;5062092;28;20034;-80
2022/09/26 10:36:06;;;;;;;9.05;2.60;;;32.40;66.60;;;;;;5011795;28;20025;-81
2022/09/26 10:40:44;;;;;;;4.00;2.67;;;27.70;70.70;;;;;;5038674;28;20100;-81
2022/09/26 10:41:24;;;;;;;3.35;2.70;;;25.70;74.60;;;;;;5035711;28;20029;-83
2022/09/26 10:43:58;;;;;;;4.05;2.85;;;23.50;79.30;;;;;;5039311;28;20109;-80
2022/09/26 10:46:46;;;;;;;3.55;2.65;;;23.90;80.40;;;;;;5058520;28;20113;-81
2022/09/26 10:49:38;;;;;;;5.13;2.30;;;25.00;78.00;;;;;;5054099;28;20039;-81
2022/09/26 10:52:33;;;;;;;4.93;3.58;;;25.30;77.20;;;;;;5044240;28;20396;-81
2022/09/26 10:55:11;;;;;;;3.47;2.10;;;25.10;77.30;;;;;;5047725;28;20025;-80
2022/09/26 10:57:44;;;;;;;3.63;2.28;;;26.80;76.20;;;;;;5046807;28;20037;-79
2022/09/26 11:00:32;;;;;;;6.53;2.00;;;28.00;73.50;;;;;;5040460;28;20032;-81
2022/09/26 11:02:59;;;;;;;2.83;2.33;;;29.50;71.20;;;;;;5044232;28;20044;-81
2022/09/26 11:08:15;;;;;;;3.60;1.83;;;26.80;72.80;;;;;;5038349;28;20051;-81
2022/09/26 11:11:14;;;;;;;3.92;2.50;;;27.80;72.90;;;;;;5033021;28;20030;-80
2022/09/26 11:14:00;;;;;;;3.05;2.22;;;30.50;68.20;;;;;;5056929;28;20021;-82
2022/09/26 11:16:26;;;;;;;2.45;2.22;;;31.70;66.30;;;;;;5040421;28;20031;-79
2022/09/26 11:19:37;;;;;;;4.68;2.30;;;31.50;65.80;;;;;;5039398;28;20039;-80
2022/09/26 11:22:24;;;;;;;7.53;2.30;;;30.00;67.10;;;;;;5012684;28;20033;-81
2022/09/26 11:25:30;;;;;;;6.68;2.45;;;30.00;67.20;;;;;;5041743;28;20413;-80
2022/09/26 11:28:00;;;;;;;4.57;3.38;;;30.20;66.70;;;;;;5038200;28;20033;-80
2022/09/26 11:30:47;;;;;;;2.95;1.80;;;30.10;66.80;;;;;;5046311;28;20033;-82
2022/09/26 11:33:17;;;;;;;2.85;2.17;;;30.50;67.00;;;;;;5041292;28;20025;-82
2022/09/26 11:36:27;;;;;;;2.38;2.10;;;30.60;66.60;;;;;;5062965;28;20029;-79
2022/09/26 11:39:10;;;;;;;2.38;2.17;;;32.10;65.40;;;;;;5040093;28;20083;-79
2022/09/26 11:41:45;;;;;;;3.50;2.13;;;30.90;64.90;;;;;;5047245;28;20029;-82
2022/09/26 11:44:19;;;;;;;6.80;2.30;;;30.10;66.10;;;;;;5041963;28;20059;-81
2022/09/26 11:47:58;;;;;;;4.85;1.98;;;29.00;67.50;;;;;;5061849;28;20040;-81
2022/09/26 11:51:05;;;;;;;4.63;2.00;;;28.30;69.10;;;;;;5046532;28;20021;-80
2022/09/26 11:53:54;;;;;;;4.85;2.55;;;28.60;67.80;;;;;;5053536;28;20029;-80
2022/09/26 11:56:46;;;;;;;3.80;2.55;;;27.70;68.70;;;;;;5073163;28;20082;-80
2022/09/26 11:59:18;;;;;;;5.90;4.85;;;27.40;69.50;;;;;;5071456;28;20033;-80
2022/09/26 12:01:54;;;;;;;3.05;2.13;;;27.50;68.80;;;;;;5069963;28;20013;-79
2022/09/26 12:04:40;;;;;;;4.78;3.67;;;27.70;68.40;;;;;;5054187;28;20097;-79
2022/09/26 12:07:15;;;;;;;4.65;2.20;;;28.50;67.30;;;;;;5071351;28;20081;-81
2022/09/26 12:10:18;;;;;;;5.95;2.15;;;28.70;66.90;;;;;;5066633;28;20048;-78
2022/09/26 12:12:56;;;;;;;4.35;2.10;;;28.20;66.80;;;;;;5070155;28;20021;-80
2022/09/26 12:16:13;;;;;;;4.70;2.10;;;26.70;68.20;;;;;;5070266;28;20138;-79
2022/09/26 12:18:53;;;;;;;3.30;2.08;;;25.70;70.70;;;;;;5012926;28;20052;-78
2022/09/26 12:21:31;;;;;;;3.83;2.50;;;26.30;69.60;;;;;;5062229;28;20467;-78
2022/09/26 12:24:16;;;;;;;4.45;2.40;;;26.80;67.90;;;;;;5057893;28;20036;-78
2022/09/26 12:27:02;;;;;;;4.13;2.25;;;27.20;67.80;;;;;;5066776;28;20040;-80
2022/09/26 12:29:47;;;;;;;6.18;2.10;;;28.00;67.30;;;;;;5053926;28;20100;-79
2022/09/26 12:32:27;;;;;;;7.35;2.40;;;28.60;66.30;;;;;;5058627;28;20036;-79
2022/09/26 12:35:21;;;;;;;4.68;2.38;;;28.60;66.40;;;;;;5061137;28;20113;-80
2022/09/26 12:38:13;;;;;;;3.50;2.30;;;28.60;66.70;;;;;;5060757;28;20426;-79
2022/09/26 12:40:49;;;;;;;5.93;3.15;;;28.30;66.90;;;;;;5055663;28;20112;-81
2022/09/26 12:43:39;;;;;;;3.05;2.40;;;28.20;67.10;;;;;;5039769;28;20045;-80
2022/09/26 12:46:30;;;;;;;5.07;2.70;;;27.20;67.50;;;;;;5038845;28;20025;-80
2022/09/26 12:49:24;;;;;;;4.75;2.53;;;26.80;69.90;;;;;;5059026;28;20028;-78
2022/09/26 12:51:54;;;;;;;4.32;3.63;;;27.00;69.20;;;;;;5059629;28;20141;-78
2022/09/26 12:54:33;;;;;;;3.03;2.40;;;26.60;69.30;;;;;;5057594;28;20050;-80
2022/09/26 12:57:29;;;;;;;5.15;2.38;;;26.20;70.20;;;;;;5056724;28;20025;-80
2022/09/26 13:00:09;;;;;;;3.05;2.63;;;25.40;72.10;;;;;;5037560;28;20081;-80
2022/09/26 13:02:56;;;;;;;6.22;2.60;;;24.60;73.60;;;;;;5096625;22;20052;-88
2022/09/26 13:05:29;;;;;;;3.38;2.70;;;24.50;74.00;;;;;;5041809;28;20048;-88
2022/09/26 13:08:36;;;;;;;5.78;3.05;;;24.20;74.40;;;;;;5062645;28;20028;-88
2022/09/26 13:11:14;;;;;;;3.88;2.60;;;24.10;75.30;;;;;;4960300;28;20085;-85
2022/09/26 13:14:17;;;;;;;2.60;2.40;;;24.30;75.00;;;;;;5056011;28;20037;-88
2022/09/26 13:17:12;;;;;;;4.60;2.65;;;24.20;74.60;;;;;;5052918;28;20040;-87
2022/09/26 13:19:50;;;;;;;4.50;2.60;;;24.10;75.70;;;;;;5038565;28;20060;-87
2022/09/26 13:22:43;;;;;;;2.88;2.50;;;25.70;72.90;;;;;;5050844;28;20175;-88
2022/09/26 13:25:25;;;;;;;2.50;2.28;;;27.10;70.60;;;;;;5045652;28;20017;-89
2022/09/26 13:28:11;;;;;;;2.75;2.38;;;28.60;68.20;;;;;;5076676;28;20045;-84
2022/09/26 13:30:53;;;;;;;4.50;1.90;;;29.90;65.70;;;;;;5057910;28;20044;-88
2022/09/26 13:33:25;;;;;;;6.13;2.97;;;30.60;64.20;;;;;;5068928;28;20064;-88
2022/09/26 13:36:10;;;;;;;2.20;2.00;;;30.70;63.20;;;;;;5058198;28;20094;-87
2022/09/26 13:38:40;;;;;;;3.20;2.30;;;29.60;63.70;;;;;;5074249;28;20025;-88
2022/09/26 13:41:15;;;;;;;9.75;2.58;;;27.80;66.00;;;;;;5040636;28;20040;-87
2022/09/26 13:43:59;;;;;;;5.95;2.40;;;26.60;67.60;;;;;;5074370;28;20025;-85
2022/09/26 13:46:35;;;;;;;3.03;2.40;;;25.60;69.80;;;;;;5058019;28;20143;-88